sensor_id;sensor_type;location;lat;lon;timestamp;temperature;humidity
16229;DHT22;8222;51.462;12.630;2022-09-20T00:01:23;12.70;99.90
16229;DHT22;8222;51.462;12.630;2022-09-20T00:03:52;12.70;99.90
16229;DHT22;8222;51.462;12.630;2022-09-20T00:06:20;12.70;99.90
16229;DHT22;8222;51.462;12.630;2022-09-20T00:08:47;12.70;99.90
16229;DHT22;8222;51.462;12.630;2022-09-20T00:11:14;12.70;99.90
16229;DHT22;8222;51.462;12.630;2022-09-20T00:13:42;12.70;99.90
16229;DHT22;8222;51.462;12.630;2022-09-20T00:16:11;12.70;99.90
16229;DHT22;8222;51.462;12.630;2022-09-20T00:18:38;12.70;99.90
16229;DHT22;8222;51.462;12.630;2022-09-20T00:21:04;12.70;99.90
16229;DHT22;8222;51.462;12.630;2022-09-20T00:23:31;12.70;99.90
16229;DHT22;8222;51.462;12.630;2022-09-20T00:26:02;12.70;99.90
16229;DHT22;8222;51.462;12.630;2022-09-20T00:28:28;13.30;99.90
16229;DHT22;8222;51.462;12.630;2022-09-20T00:30:56;12.70;99.90
16229;DHT22;8222;51.462;12.630;2022-09-20T00:33:23;12.70;99.90
16229;DHT22;8222;51.462;12.630;2022-09-20T00:36:09;12.70;99.90
16229;DHT22;8222;51.462;12.630;2022-09-20T00:38:35;12.70;99.90
16229;DHT22;8222;51.462;12.630;2022-09-20T00:41:00;12.70;99.90
16229;DHT22;8222;51.462;12.630;2022-09-20T00:43:44;12.70;99.90
16229;DHT22;8222;51.462;12.630;2022-09-20T00:46:32;12.60;99.90
16229;DHT22;8222;51.462;12.630;2022-09-20T00:49:21;12.50;99.90
16229;DHT22;8222;51.462;12.630;2022-09-20T00:51:54;12.40;99.90
16229;DHT22;8222;51.462;12.630;2022-09-20T00:54:22;12.30;99.90
16229;DHT22;8222;51.462;12.630;2022-09-20T00:56:50;12.40;99.90
16229;DHT22;8222;51.462;12.630;2022-09-20T00:59:37;12.40;99.90
16229;DHT22;8222;51.462;12.630;2022-09-20T01:02:15;12.50;99.90
16229;DHT22;8222;51.462;12.630;2022-09-20T01:04:42;12.50;99.90
16229;DHT22;8222;51.462;12.630;2022-09-20T01:07:10;12.40;99.90
16229;DHT22;8222;51.462;12.630;2022-09-20T01:09:36;12.40;99.90
16229;DHT22;8222;51.462;12.630;2022-09-20T01:12:05;12.40;99.90
16229;DHT22;8222;51.462;12.630;2022-09-20T01:14:32;12.40;99.90
16229;DHT22;8222;51.462;12.630;2022-09-20T01:17:03;12.40;99.90
16229;DHT22;8222;51.462;12.630;2022-09-20T01:28:26;12.30;99.90
16229;DHT22;8222;51.462;12.630;2022-09-20T01:33:29;12.20;99.90
16229;DHT22;8222;51.462;12.630;2022-09-20T01:35:58;12.30;99.90
16229;DHT22;8222;51.462;12.630;2022-09-20T01:41:26;12.40;99.90
16229;DHT22;8222;51.462;12.630;2022-09-20T01:44:05;12.50;99.90
16229;DHT22;8222;51.462;12.630;2022-09-20T01:46:36;12.40;99.90
16229;DHT22;8222;51.462;12.630;2022-09-20T02:00:11;13.00;99.90
16229;DHT22;8222;51.462;12.630;2022-09-20T02:06:06;12.60;99.90
16229;DHT22;8222;51.462;12.630;2022-09-20T02:17:40;12.60;99.90
16229;DHT22;8222;51.462;12.630;2022-09-20T02:20:22;12.50;99.90
16229;DHT22;8222;51.462;12.630;2022-09-20T02:25:58;13.30;99.90
16229;DHT22;8222;51.462;12.630;2022-09-20T02:28:38;12.60;99.90
16229;DHT22;8222;51.462;12.630;2022-09-20T02:31:15;12.60;99.90
16229;DHT22;8222;51.462;12.630;2022-09-20T02:39:47;12.60;99.90
16229;DHT22;8222;51.462;12.630;2022-09-20T02:44:51;12.50;99.90
16229;DHT22;8222;51.462;12.630;2022-09-20T02:47:22;12.50;99.90
16229;DHT22;8222;51.462;12.630;2022-09-20T02:50:22;12.50;99.90
16229;DHT22;8222;51.462;12.630;2022-09-20T02:53:25;12.50;99.90
16229;DHT22;8222;51.462;12.630;2022-09-20T02:58:59;12.60;99.90
16229;DHT22;8222;51.462;12.630;2022-09-20T03:04:28;12.60;99.90
16229;DHT22;8222;51.462;12.630;2022-09-20T03:07:11;12.60;99.90
16229;DHT22;8222;51.462;12.630;2022-09-20T03:09:47;12.60;99.90
16229;DHT22;8222;51.462;12.630;2022-09-20T03:18:16;12.50;99.90
16229;DHT22;8222;51.462;12.630;2022-09-20T03:27:04;12.50;99.90
16229;DHT22;8222;51.462;12.630;2022-09-20T03:30:03;12.50;99.90
16229;DHT22;8222;51.462;12.630;2022-09-20T03:35:21;12.50;99.90
16229;DHT22;8222;51.462;12.630;2022-09-20T03:38:10;12.50;99.90
16229;DHT22;8222;51.462;12.630;2022-09-20T03:40:54;12.50;99.90
16229;DHT22;8222;51.462;12.630;2022-09-20T03:43:58;12.50;99.90
16229;DHT22;8222;51.462;12.630;2022-09-20T03:46:45;12.50;99.90
16229;DHT22;8222;51.462;12.630;2022-09-20T03:52:25;12.40;99.90
16229;DHT22;8222;51.462;12.630;2022-09-20T03:55:13;12.40;99.90
16229;DHT22;8222;51.462;12.630;2022-09-20T03:58:05;12.30;99.90
16229;DHT22;8222;51.462;12.630;2022-09-20T04:03:48;12.40;99.90
16229;DHT22;8222;51.462;12.630;2022-09-20T04:06:54;12.50;99.90
16229;DHT22;8222;51.462;12.630;2022-09-20T04:18:33;12.60;99.90
16229;DHT22;8222;51.462;12.630;2022-09-20T04:21:00;12.60;99.90
16229;DHT22;8222;51.462;12.630;2022-09-20T04:24:04;12.70;99.90
16229;DHT22;8222;51.462;12.630;2022-09-20T04:27:15;12.50;99.90
16229;DHT22;8222;51.462;12.630;2022-09-20T04:32:48;12.50;99.90
16229;DHT22;8222;51.462;12.630;2022-09-20T04:35:21;12.40;99.90
16229;DHT22;8222;51.462;12.630;2022-09-20T04:38:09;12.40;99.90
16229;DHT22;8222;51.462;12.630;2022-09-20T04:43:40;12.40;99.90
16229;DHT22;8222;51.462;12.630;2022-09-20T04:49:01;12.50;99.90
16229;DHT22;8222;51.462;12.630;2022-09-20T05:00:14;12.60;99.90
16229;DHT22;8222;51.462;12.630;2022-09-20T05:11:22;12.30;99.90
16229;DHT22;8222;51.462;12.630;2022-09-20T05:36:12;12.50;99.90
16229;DHT22;8222;51.462;12.630;2022-09-20T05:38:47;12.50;99.90
16229;DHT22;8222;51.462;12.630;2022-09-20T05:44:26;12.60;99.90
16229;DHT22;8222;51.462;12.630;2022-09-20T05:47:17;12.40;99.90
16229;DHT22;8222;51.462;12.630;2022-09-20T05:53:23;12.40;99.90
16229;DHT22;8222;51.462;12.630;2022-09-20T05:56:01;12.30;99.90
16229;DHT22;8222;51.462;12.630;2022-09-20T06:01:25;12.40;99.90
16229;DHT22;8222;51.462;12.630;2022-09-20T06:04:19;12.40;99.90
16229;DHT22;8222;51.462;12.630;2022-09-20T06:17:27;13.00;99.90
16229;DHT22;8222;51.462;12.630;2022-09-20T06:20:19;12.90;99.90
16229;DHT22;8222;51.462;12.630;2022-09-20T06:22:55;12.90;99.90
16229;DHT22;8222;51.462;12.630;2022-09-20T06:25:49;12.80;99.90
16229;DHT22;8222;51.462;12.630;2022-09-20T06:28:32;12.80;99.90
16229;DHT22;8222;51.462;12.630;2022-09-20T06:30:58;12.90;99.90
16229;DHT22;8222;51.462;12.630;2022-09-20T06:33:26;12.90;99.90
16229;DHT22;8222;51.462;12.630;2022-09-20T06:41:59;13.30;99.90
16229;DHT22;8222;51.462;12.630;2022-09-20T06:44:25;13.40;99.90
16229;DHT22;8222;51.462;12.630;2022-09-20T06:46:51;13.60;99.90
16229;DHT22;8222;51.462;12.630;2022-09-20T06:49:20;13.50;99.90
16229;DHT22;8222;51.462;12.630;2022-09-20T06:51:46;13.60;99.90
16229;DHT22;8222;51.462;12.630;2022-09-20T06:54:17;13.40;99.90
16229;DHT22;8222;51.462;12.630;2022-09-20T06:56:43;13.30;99.90
16229;DHT22;8222;51.462;12.630;2022-09-20T06:59:10;13.30;99.90
16229;DHT22;8222;51.462;12.630;2022-09-20T07:01:37;13.50;99.90
16229;DHT22;8222;51.462;12.630;2022-09-20T07:04:03;13.60;99.90
16229;DHT22;8222;51.462;12.630;2022-09-20T07:06:31;13.60;99.90
16229;DHT22;8222;51.462;12.630;2022-09-20T07:08:56;13.60;99.90
16229;DHT22;8222;51.462;12.630;2022-09-20T07:11:22;13.60;99.90
16229;DHT22;8222;51.462;12.630;2022-09-20T07:13:52;13.60;99.90
16229;DHT22;8222;51.462;12.630;2022-09-20T07:16:18;13.50;99.90
16229;DHT22;8222;51.462;12.630;2022-09-20T07:18:45;13.70;99.90
16229;DHT22;8222;51.462;12.630;2022-09-20T07:21:13;14.40;99.90
16229;DHT22;8222;51.462;12.630;2022-09-20T07:23:39;13.90;99.90
16229;DHT22;8222;51.462;12.630;2022-09-20T07:26:05;14.00;99.90
16229;DHT22;8222;51.462;12.630;2022-09-20T07:28:33;14.00;99.90
16229;DHT22;8222;51.462;12.630;2022-09-20T07:31:00;13.90;99.90
16229;DHT22;8222;51.462;12.630;2022-09-20T07:33:25;14.50;99.90
16229;DHT22;8222;51.462;12.630;2022-09-20T07:35:52;13.80;99.90
16229;DHT22;8222;51.462;12.630;2022-09-20T07:38:22;13.80;99.90
16229;DHT22;8222;51.462;12.630;2022-09-20T07:40:58;13.80;99.90
16229;DHT22;8222;51.462;12.630;2022-09-20T07:43:25;13.70;99.90
16229;DHT22;8222;51.462;12.630;2022-09-20T07:45:52;13.70;99.90
16229;DHT22;8222;51.462;12.630;2022-09-20T07:48:34;13.70;99.90
16229;DHT22;8222;51.462;12.630;2022-09-20T07:51:09;13.90;99.90
16229;DHT22;8222;51.462;12.630;2022-09-20T07:53:35;13.90;99.90
16229;DHT22;8222;51.462;12.630;2022-09-20T07:56:05;14.00;99.90
16229;DHT22;8222;51.462;12.630;2022-09-20T07:58:33;14.20;99.90
16229;DHT22;8222;51.462;12.630;2022-09-20T08:01:04;14.00;99.90
16229;DHT22;8222;51.462;12.630;2022-09-20T08:03:31;14.10;99.90
16229;DHT22;8222;51.462;12.630;2022-09-20T08:05:59;14.10;99.90
16229;DHT22;8222;51.462;12.630;2022-09-20T08:08:25;16.00;99.90
16229;DHT22;8222;51.462;12.630;2022-09-20T08:10:51;14.10;99.90
16229;DHT22;8222;51.462;12.630;2022-09-20T08:13:16;14.10;99.90
16229;DHT22;8222;51.462;12.630;2022-09-20T08:15:42;14.30;99.90
16229;DHT22;8222;51.462;12.630;2022-09-20T08:18:09;14.90;99.90
16229;DHT22;8222;51.462;12.630;2022-09-20T08:20:37;14.30;99.90
16229;DHT22;8222;51.462;12.630;2022-09-20T08:23:04;14.40;99.90
16229;DHT22;8222;51.462;12.630;2022-09-20T08:25:29;14.50;99.90
16229;DHT22;8222;51.462;12.630;2022-09-20T08:27:55;14.30;99.90
16229;DHT22;8222;51.462;12.630;2022-09-20T08:30:21;14.40;99.90
16229;DHT22;8222;51.462;12.630;2022-09-20T08:32:48;14.60;99.90
16229;DHT22;8222;51.462;12.630;2022-09-20T08:35:14;14.50;99.90
16229;DHT22;8222;51.462;12.630;2022-09-20T08:37:40;14.60;99.90
16229;DHT22;8222;51.462;12.630;2022-09-20T08:40:11;14.60;99.90
16229;DHT22;8222;51.462;12.630;2022-09-20T08:42:37;14.70;99.90
16229;DHT22;8222;51.462;12.630;2022-09-20T08:45:16;14.60;99.90
16229;DHT22;8222;51.462;12.630;2022-09-20T08:47:58;14.70;99.90
16229;DHT22;8222;51.462;12.630;2022-09-20T08:50:24;14.80;99.90
16229;DHT22;8222;51.462;12.630;2022-09-20T08:52:56;14.80;99.90
16229;DHT22;8222;51.462;12.630;2022-09-20T08:55:24;14.80;99.90
16229;DHT22;8222;51.462;12.630;2022-09-20T08:57:56;15.00;99.90
16229;DHT22;8222;51.462;12.630;2022-09-20T09:00:32;14.90;99.90
16229;DHT22;8222;51.462;12.630;2022-09-20T09:03:09;15.00;99.90
16229;DHT22;8222;51.462;12.630;2022-09-20T09:05:53;14.90;99.90
16229;DHT22;8222;51.462;12.630;2022-09-20T09:08:32;14.70;99.90
16229;DHT22;8222;51.462;12.630;2022-09-20T09:11:02;15.20;99.90
16229;DHT22;8222;51.462;12.630;2022-09-20T09:13:40;14.90;99.90
16229;DHT22;8222;51.462;12.630;2022-09-20T09:16:12;15.20;99.90
16229;DHT22;8222;51.462;12.630;2022-09-20T09:18:41;15.30;99.90
16229;DHT22;8222;51.462;12.630;2022-09-20T09:21:08;15.60;99.90
16229;DHT22;8222;51.462;12.630;2022-09-20T09:23:52;15.90;99.90
16229;DHT22;8222;51.462;12.630;2022-09-20T09:26:23;16.00;99.90
16229;DHT22;8222;51.462;12.630;2022-09-20T09:29:08;16.00;99.90
16229;DHT22;8222;51.462;12.630;2022-09-20T09:31:36;16.00;99.90
16229;DHT22;8222;51.462;12.630;2022-09-20T09:36:55;16.30;99.90
16229;DHT22;8222;51.462;12.630;2022-09-20T09:39:32;16.40;99.90
16229;DHT22;8222;51.462;12.630;2022-09-20T09:41:59;16.60;99.90
16229;DHT22;8222;51.462;12.630;2022-09-20T09:44:32;16.50;99.90
16229;DHT22;8222;51.462;12.630;2022-09-20T09:46:58;16.50;99.90
16229;DHT22;8222;51.462;12.630;2022-09-20T09:49:30;16.60;99.90
16229;DHT22;8222;51.462;12.630;2022-09-20T09:54:37;16.90;99.90
16229;DHT22;8222;51.462;12.630;2022-09-20T10:00:20;16.20;99.90
16229;DHT22;8222;51.462;12.630;2022-09-20T10:08:44;16.70;99.90
16229;DHT22;8222;51.462;12.630;2022-09-20T10:11:17;16.40;99.90
16229;DHT22;8222;51.462;12.630;2022-09-20T10:19:44;16.40;99.90
16229;DHT22;8222;51.462;12.630;2022-09-20T10:25:40;16.50;99.90
16229;DHT22;8222;51.462;12.630;2022-09-20T10:31:24;17.60;99.90
16229;DHT22;8222;51.462;12.630;2022-09-20T10:36:48;17.60;99.90
16229;DHT22;8222;51.462;12.630;2022-09-20T10:39:28;17.90;99.90
16229;DHT22;8222;51.462;12.630;2022-09-20T10:45:06;18.00;99.90
16229;DHT22;8222;51.462;12.630;2022-09-20T10:47:45;18.20;99.90
16229;DHT22;8222;51.462;12.630;2022-09-20T10:50:47;18.10;99.90
16229;DHT22;8222;51.462;12.630;2022-09-20T10:56:32;18.00;99.90
16229;DHT22;8222;51.462;12.630;2022-09-20T11:08:16;18.30;99.90
16229;DHT22;8222;51.462;12.630;2022-09-20T11:16:22;18.10;99.90
16229;DHT22;8222;51.462;12.630;2022-09-20T11:19:02;17.50;99.90
16229;DHT22;8222;51.462;12.630;2022-09-20T11:22:09;16.90;99.90
16229;DHT22;8222;51.462;12.630;2022-09-20T11:24:48;16.60;99.90
16229;DHT22;8222;51.462;12.630;2022-09-20T11:30:00;17.10;99.90
16229;DHT22;8222;51.462;12.630;2022-09-20T11:32:45;17.20;99.90
16229;DHT22;8222;51.462;12.630;2022-09-20T11:38:19;17.90;99.90
16229;DHT22;8222;51.462;12.630;2022-09-20T11:40:53;18.20;99.90
16229;DHT22;8222;51.462;12.630;2022-09-20T11:43:20;18.40;99.90
16229;DHT22;8222;51.462;12.630;2022-09-20T11:45:51;18.70;99.90
16229;DHT22;8222;51.462;12.630;2022-09-20T11:48:32;18.70;99.90
16229;DHT22;8222;51.462;12.630;2022-09-20T11:51:19;18.70;99.90
16229;DHT22;8222;51.462;12.630;2022-09-20T11:56:53;18.80;99.90
16229;DHT22;8222;51.462;12.630;2022-09-20T12:02:01;18.40;99.90
16229;DHT22;8222;51.462;12.630;2022-09-20T12:04:33;18.20;99.90
16229;DHT22;8222;51.462;12.630;2022-09-20T12:09:32;18.30;99.90
16229;DHT22;8222;51.462;12.630;2022-09-20T12:12:29;18.30;99.90
16229;DHT22;8222;51.462;12.630;2022-09-20T12:14:58;18.30;99.90
16229;DHT22;8222;51.462;12.630;2022-09-20T12:28:55;18.10;99.90
16229;DHT22;8222;51.462;12.630;2022-09-20T12:36:40;18.20;99.90
16229;DHT22;8222;51.462;12.630;2022-09-20T12:41:59;18.30;99.90
16229;DHT22;8222;51.462;12.630;2022-09-20T12:44:40;18.20;99.90
16229;DHT22;8222;51.462;12.630;2022-09-20T12:58:50;18.40;99.90
16229;DHT22;8222;51.462;12.630;2022-09-20T13:03:44;18.70;99.90
16229;DHT22;8222;51.462;12.630;2022-09-20T13:16:39;17.90;99.90
16229;DHT22;8222;51.462;12.630;2022-09-20T13:19:16;17.60;99.90
16229;DHT22;8222;51.462;12.630;2022-09-20T13:24:19;17.40;99.90
16229;DHT22;8222;51.462;12.630;2022-09-20T13:26:46;17.30;99.90
16229;DHT22;8222;51.462;12.630;2022-09-20T13:29:36;17.50;99.90
16229;DHT22;8222;51.462;12.630;2022-09-20T13:32:23;17.70;99.90
16229;DHT22;8222;51.462;12.630;2022-09-20T13:35:17;17.80;99.90
16229;DHT22;8222;51.462;12.630;2022-09-20T13:37:54;17.90;99.90
16229;DHT22;8222;51.462;12.630;2022-09-20T13:40:30;18.10;99.90
16229;DHT22;8222;51.462;12.630;2022-09-20T13:43:03;18.00;99.90
16229;DHT22;8222;51.462;12.630;2022-09-20T13:45:30;18.20;99.90
16229;DHT22;8222;51.462;12.630;2022-09-20T13:47:59;18.50;99.90
16229;DHT22;8222;51.462;12.630;2022-09-20T13:50:29;18.80;99.90
16229;DHT22;8222;51.462;12.630;2022-09-20T13:52:59;18.80;99.90
16229;DHT22;8222;51.462;12.630;2022-09-20T13:57:58;18.70;99.90
16229;DHT22;8222;51.462;12.630;2022-09-20T14:00:24;18.80;99.90
16229;DHT22;8222;51.462;12.630;2022-09-20T14:02:52;18.60;99.90
16229;DHT22;8222;51.462;12.630;2022-09-20T14:05:24;18.40;99.90
16229;DHT22;8222;51.462;12.630;2022-09-20T14:07:51;18.40;99.90
16229;DHT22;8222;51.462;12.630;2022-09-20T14:10:45;18.40;99.90
16229;DHT22;8222;51.462;12.630;2022-09-20T14:13:14;18.50;99.90
16229;DHT22;8222;51.462;12.630;2022-09-20T14:15:45;18.60;99.90
16229;DHT22;8222;51.462;12.630;2022-09-20T14:18:21;18.50;99.90
16229;DHT22;8222;51.462;12.630;2022-09-20T14:20:47;18.40;99.90
16229;DHT22;8222;51.462;12.630;2022-09-20T14:23:27;17.90;99.90
16229;DHT22;8222;51.462;12.630;2022-09-20T14:26:07;17.70;99.90
16229;DHT22;8222;51.462;12.630;2022-09-20T14:28:33;17.60;99.90
16229;DHT22;8222;51.462;12.630;2022-09-20T14:31:18;17.70;99.90
16229;DHT22;8222;51.462;12.630;2022-09-20T14:33:51;17.80;99.90
16229;DHT22;8222;51.462;12.630;2022-09-20T14:36:23;17.80;99.90
16229;DHT22;8222;51.462;12.630;2022-09-20T14:38:55;17.70;99.90
16229;DHT22;8222;51.462;12.630;2022-09-20T14:41:25;17.60;99.90
16229;DHT22;8222;51.462;12.630;2022-09-20T14:43:55;17.50;99.90
16229;DHT22;8222;51.462;12.630;2022-09-20T14:46:36;17.30;99.90
16229;DHT22;8222;51.462;12.630;2022-09-20T14:49:42;17.40;99.90
16229;DHT22;8222;51.462;12.630;2022-09-20T14:52:33;17.30;99.90
16229;DHT22;8222;51.462;12.630;2022-09-20T14:57:27;17.30;99.90
16229;DHT22;8222;51.462;12.630;2022-09-20T14:59:54;17.40;99.90
16229;DHT22;8222;51.462;12.630;2022-09-20T15:02:22;17.50;99.90
16229;DHT22;8222;51.462;12.630;2022-09-20T15:04:56;17.60;99.90
16229;DHT22;8222;51.462;12.630;2022-09-20T15:07:24;17.60;99.90
16229;DHT22;8222;51.462;12.630;2022-09-20T15:09:51;17.60;99.90
16229;DHT22;8222;51.462;12.630;2022-09-20T15:12:18;17.50;99.90
16229;DHT22;8222;51.462;12.630;2022-09-20T15:14:45;17.40;99.90
16229;DHT22;8222;51.462;12.630;2022-09-20T15:17:20;17.40;99.90
16229;DHT22;8222;51.462;12.630;2022-09-20T15:19:47;17.50;99.90
16229;DHT22;8222;51.462;12.630;2022-09-20T15:22:14;17.40;99.90
16229;DHT22;8222;51.462;12.630;2022-09-20T15:24:40;17.40;99.90
16229;DHT22;8222;51.462;12.630;2022-09-20T15:27:06;17.40;99.90
16229;DHT22;8222;51.462;12.630;2022-09-20T15:29:32;17.40;99.90
16229;DHT22;8222;51.462;12.630;2022-09-20T15:31:57;17.40;99.90
16229;DHT22;8222;51.462;12.630;2022-09-20T15:34:24;17.40;99.90
16229;DHT22;8222;51.462;12.630;2022-09-20T15:36:49;17.30;99.90
16229;DHT22;8222;51.462;12.630;2022-09-20T15:39:15;17.30;99.90
16229;DHT22;8222;51.462;12.630;2022-09-20T15:41:41;17.30;99.90
16229;DHT22;8222;51.462;12.630;2022-09-20T15:44:09;17.00;99.90
16229;DHT22;8222;51.462;12.630;2022-09-20T15:46:37;16.90;99.90
16229;DHT22;8222;51.462;12.630;2022-09-20T15:49:03;16.80;99.90
16229;DHT22;8222;51.462;12.630;2022-09-20T15:51:30;16.80;99.90
16229;DHT22;8222;51.462;12.630;2022-09-20T15:54:01;16.70;99.90
16229;DHT22;8222;51.462;12.630;2022-09-20T15:56:35;16.70;99.90
16229;DHT22;8222;51.462;12.630;2022-09-20T15:59:07;16.60;99.90
16229;DHT22;8222;51.462;12.630;2022-09-20T16:01:34;16.50;99.90
16229;DHT22;8222;51.462;12.630;2022-09-20T16:04:10;16.40;99.90
16229;DHT22;8222;51.462;12.630;2022-09-20T16:06:37;16.50;99.90
16229;DHT22;8222;51.462;12.630;2022-09-20T16:09:04;16.50;99.90
16229;DHT22;8222;51.462;12.630;2022-09-20T16:11:30;16.50;99.90
16229;DHT22;8222;51.462;12.630;2022-09-20T16:13:57;16.50;99.90
16229;DHT22;8222;51.462;12.630;2022-09-20T16:16:24;16.50;99.90
16229;DHT22;8222;51.462;12.630;2022-09-20T16:18:52;16.70;99.90
16229;DHT22;8222;51.462;12.630;2022-09-20T16:21:37;16.70;99.90
16229;DHT22;8222;51.462;12.630;2022-09-20T16:24:04;16.80;99.90
16229;DHT22;8222;51.462;12.630;2022-09-20T16:26:30;16.90;99.90
16229;DHT22;8222;51.462;12.630;2022-09-20T16:28:59;16.90;99.90
16229;DHT22;8222;51.462;12.630;2022-09-20T16:31:36;17.00;99.90
16229;DHT22;8222;51.462;12.630;2022-09-20T16:34:29;16.90;99.90
16229;DHT22;8222;51.462;12.630;2022-09-20T16:37:04;16.60;99.90
16229;DHT22;8222;51.462;12.630;2022-09-20T16:39:30;16.60;99.90
16229;DHT22;8222;51.462;12.630;2022-09-20T16:42:01;16.60;99.90
16229;DHT22;8222;51.462;12.630;2022-09-20T16:44:31;16.80;99.90
16229;DHT22;8222;51.462;12.630;2022-09-20T16:46:57;16.90;99.90
16229;DHT22;8222;51.462;12.630;2022-09-20T16:49:25;16.90;99.90
16229;DHT22;8222;51.462;12.630;2022-09-20T16:51:52;16.90;99.90
16229;DHT22;8222;51.462;12.630;2022-09-20T16:54:18;16.80;99.90
16229;DHT22;8222;51.462;12.630;2022-09-20T16:56:48;16.90;99.90
16229;DHT22;8222;51.462;12.630;2022-09-20T16:59:16;16.70;99.90
16229;DHT22;8222;51.462;12.630;2022-09-20T17:01:43;16.70;99.90
16229;DHT22;8222;51.462;12.630;2022-09-20T17:04:10;16.50;99.90
16229;DHT22;8222;51.462;12.630;2022-09-20T17:06:38;16.50;99.90
16229;DHT22;8222;51.462;12.630;2022-09-20T17:09:06;16.30;99.90
16229;DHT22;8222;51.462;12.630;2022-09-20T17:11:34;16.10;99.90
16229;DHT22;8222;51.462;12.630;2022-09-20T17:14:01;15.80;99.90
16229;DHT22;8222;51.462;12.630;2022-09-20T17:16:29;15.40;99.90
16229;DHT22;8222;51.462;12.630;2022-09-20T17:18:57;15.40;99.90
16229;DHT22;8222;51.462;12.630;2022-09-20T17:21:23;15.10;99.90
16229;DHT22;8222;51.462;12.630;2022-09-20T17:23:51;15.00;99.90
16229;DHT22;8222;51.462;12.630;2022-09-20T17:26:28;15.20;99.90
16229;DHT22;8222;51.462;12.630;2022-09-20T17:28:59;15.00;99.90
16229;DHT22;8222;51.462;12.630;2022-09-20T17:31:27;14.80;99.90
16229;DHT22;8222;51.462;12.630;2022-09-20T17:33:57;14.80;99.90
16229;DHT22;8222;51.462;12.630;2022-09-20T17:36:29;14.80;99.90
16229;DHT22;8222;51.462;12.630;2022-09-20T17:38:56;14.80;99.90
16229;DHT22;8222;51.462;12.630;2022-09-20T17:41:23;14.80;99.90
16229;DHT22;8222;51.462;12.630;2022-09-20T17:43:56;14.70;99.90
16229;DHT22;8222;51.462;12.630;2022-09-20T17:46:24;14.60;99.90
16229;DHT22;8222;51.462;12.630;2022-09-20T17:48:56;14.60;99.90
16229;DHT22;8222;51.462;12.630;2022-09-20T17:51:24;14.50;99.90
16229;DHT22;8222;51.462;12.630;2022-09-20T17:53:51;14.50;99.90
16229;DHT22;8222;51.462;12.630;2022-09-20T17:56:17;14.50;99.90
16229;DHT22;8222;51.462;12.630;2022-09-20T17:58:43;14.40;99.90
16229;DHT22;8222;51.462;12.630;2022-09-20T18:01:13;14.40;99.90
16229;DHT22;8222;51.462;12.630;2022-09-20T18:03:42;14.30;99.90
16229;DHT22;8222;51.462;12.630;2022-09-20T18:08:47;14.20;99.90
16229;DHT22;8222;51.462;12.630;2022-09-20T18:11:14;14.00;99.90
16229;DHT22;8222;51.462;12.630;2022-09-20T18:13:39;14.00;99.90
16229;DHT22;8222;51.462;12.630;2022-09-20T18:16:10;13.90;99.90
16229;DHT22;8222;51.462;12.630;2022-09-20T18:18:37;13.70;99.90
16229;DHT22;8222;51.462;12.630;2022-09-20T18:21:13;13.70;99.90
16229;DHT22;8222;51.462;12.630;2022-09-20T18:23:40;13.70;99.90
16229;DHT22;8222;51.462;12.630;2022-09-20T18:26:08;13.60;99.90
16229;DHT22;8222;51.462;12.630;2022-09-20T18:28:53;13.60;99.90
16229;DHT22;8222;51.462;12.630;2022-09-20T18:31:20;13.50;99.90
16229;DHT22;8222;51.462;12.630;2022-09-20T18:33:46;13.40;99.90
16229;DHT22;8222;51.462;12.630;2022-09-20T18:36:11;13.40;99.90
16229;DHT22;8222;51.462;12.630;2022-09-20T18:38:37;13.40;99.90
16229;DHT22;8222;51.462;12.630;2022-09-20T18:41:05;13.40;99.90
16229;DHT22;8222;51.462;12.630;2022-09-20T18:43:31;13.30;99.90
16229;DHT22;8222;51.462;12.630;2022-09-20T18:45:58;13.30;99.90
16229;DHT22;8222;51.462;12.630;2022-09-20T18:48:25;13.20;99.90
16229;DHT22;8222;51.462;12.630;2022-09-20T18:50:56;13.10;99.90
16229;DHT22;8222;51.462;12.630;2022-09-20T18:53:24;13.00;99.90
16229;DHT22;8222;51.462;12.630;2022-09-20T18:55:50;13.10;99.90
16229;DHT22;8222;51.462;12.630;2022-09-20T18:58:21;13.00;99.90
16229;DHT22;8222;51.462;12.630;2022-09-20T19:07:03;13.00;99.90
16229;DHT22;8222;51.462;12.630;2022-09-20T19:10:05;13.00;99.90
16229;DHT22;8222;51.462;12.630;2022-09-20T19:12:38;13.00;99.90
16229;DHT22;8222;51.462;12.630;2022-09-20T19:15:17;13.10;99.90
16229;DHT22;8222;51.462;12.630;2022-09-20T19:23:02;13.20;99.90
16229;DHT22;8222;51.462;12.630;2022-09-20T19:25:43;13.20;99.90
16229;DHT22;8222;51.462;12.630;2022-09-20T19:28:10;13.30;99.90
16229;DHT22;8222;51.462;12.630;2022-09-20T19:30:37;13.30;99.90
16229;DHT22;8222;51.462;12.630;2022-09-20T19:33:09;13.30;99.90
16229;DHT22;8222;51.462;12.630;2022-09-20T19:35:39;13.30;99.90
16229;DHT22;8222;51.462;12.630;2022-09-20T19:38:29;13.20;99.90
16229;DHT22;8222;51.462;12.630;2022-09-20T19:46:55;13.20;99.90
16229;DHT22;8222;51.462;12.630;2022-09-20T19:49:47;13.10;99.90
16229;DHT22;8222;51.462;12.630;2022-09-20T19:52:14;13.20;99.90
16229;DHT22;8222;51.462;12.630;2022-09-20T19:54:43;13.20;99.90
16229;DHT22;8222;51.462;12.630;2022-09-20T19:57:25;13.20;99.90
16229;DHT22;8222;51.462;12.630;2022-09-20T20:00:00;13.30;99.90
16229;DHT22;8222;51.462;12.630;2022-09-20T20:02:26;13.20;99.90
16229;DHT22;8222;51.462;12.630;2022-09-20T20:04:52;13.30;99.90
16229;DHT22;8222;51.462;12.630;2022-09-20T20:10:32;13.40;99.90
16229;DHT22;8222;51.462;12.630;2022-09-20T20:16:05;13.40;99.90
16229;DHT22;8222;51.462;12.630;2022-09-20T20:21:29;13.60;99.90
16229;DHT22;8222;51.462;12.630;2022-09-20T20:24:49;13.60;99.90
16229;DHT22;8222;51.462;12.630;2022-09-20T20:26:58;13.50;99.90
16229;DHT22;8222;51.462;12.630;2022-09-20T20:29:24;13.60;99.90
16229;DHT22;8222;51.462;12.630;2022-09-20T20:31:52;13.60;99.90
16229;DHT22;8222;51.462;12.630;2022-09-20T20:34:17;13.40;99.90
16229;DHT22;8222;51.462;12.630;2022-09-20T20:36:45;13.50;99.90
16229;DHT22;8222;51.462;12.630;2022-09-20T20:39:10;13.50;99.90
16229;DHT22;8222;51.462;12.630;2022-09-20T20:41:36;13.50;99.90
16229;DHT22;8222;51.462;12.630;2022-09-20T20:44:03;13.40;99.90
16229;DHT22;8222;51.462;12.630;2022-09-20T20:46:31;13.40;99.90
16229;DHT22;8222;51.462;12.630;2022-09-20T20:49:00;13.40;99.90
16229;DHT22;8222;51.462;12.630;2022-09-20T20:51:26;13.40;99.90
16229;DHT22;8222;51.462;12.630;2022-09-20T20:53:53;13.40;99.90
16229;DHT22;8222;51.462;12.630;2022-09-20T20:56:23;13.30;99.90
16229;DHT22;8222;51.462;12.630;2022-09-20T20:58:52;13.40;99.90
16229;DHT22;8222;51.462;12.630;2022-09-20T21:01:21;13.50;99.90
16229;DHT22;8222;51.462;12.630;2022-09-20T21:03:49;13.50;99.90
16229;DHT22;8222;51.462;12.630;2022-09-20T21:06:16;13.50;99.90
16229;DHT22;8222;51.462;12.630;2022-09-20T21:08:44;13.60;99.90